Cosco Kaohsiung — VREM3 — position and weather

sailwx.info

Track history (hours):
 
Tides and Currents Weather Stations Pressure Air Temp Water Temp Dewpoint Dewpoint Depression Visibility Wind Speed Wind Dir Waves Ship Positions

Cosco Kaohsiung

Last reported at 2017-Feb-02 15:31 UTC. Time now 2017-Feb-25 13:49 UTC.
Position N 48°31' W 126°33'.
Warning: this ship's position is 22 days out of date.

Length 349 m; draft 12.1 m.

Type: Ship (hazmat cat A). MMSI: 477136800.

Date/timePositionNaut miles runAvg speedWind from/ knotsBaromVisibWave heightAir tempDewpointWater temp
2017-Feb-02 15:31N 48°31' W 126°33'1515.5
2017-Feb-02 14:33N 48°31' W 126°10'1515.1
2017-Feb-02 13:33N 48°31' W 125°48'1514.9
2017-Feb-02 12:33N 48°32' W 125°25'1515.3
2017-Feb-02 11:34N 48°31' W 125°02'1515.3
2017-Feb-02 10:33N 48°29' W 124°39'1615.9
2017-Feb-02 09:34N 48°23' W 124°17'1616.1
2017-Feb-02 08:33N 48°18' W 123°54'1616.4
2017-Feb-02 07:33N 48°14' W 123°30'1111.2
2017-Feb-02 06:33N 48°10' W 123°14'1918.5
2017-Feb-02 05:31N 48°10' W 122°45'1818.7
2017-Feb-02 04:33N 47°56' W 122°29'1717.2
2017-Feb-02 03:33N 47°39' W 122°27'6 5.4
2017-Feb-02 02:32N 47°35' W 122°21'0 0.0
2017-Feb-02 01:31N 47°35' W 122°21'0 0.0
2017-Feb-02 00:32N 47°35' W 122°21'0 0.0
2017-Feb-01 23:31N 47°35' W 122°21'0 0.0
2017-Feb-01 22:32N 47°35' W 122°21'0 0.0
2017-Feb-01 21:31N 47°35' W 122°21'0 0.0
2017-Feb-01 20:32N 47°35' W 122°21'0 0.0
2017-Feb-01 19:31N 47°35' W 122°21'0 0.0
2017-Feb-01 18:32N 47°35' W 122°21'0 0.0
2017-Feb-01 17:32N 47°35' W 122°21'0 0.0
2017-Feb-01 16:32N 47°35' W 122°21'0 0.0
2017-Feb-01 15:32N 47°35' W 122°21'0 0.0
2017-Feb-01 14:31N 47°35' W 122°21'0 0.0
2017-Feb-01 12:31N 47°35' W 122°21'0 0.0
2017-Feb-01 11:32N 47°35' W 122°21'0 0.0
2017-Feb-01 10:32N 47°35' W 122°21'0 0.0
2017-Feb-01 09:31N 47°35' W 122°21'0 0.0
2017-Feb-01 08:29N 47°35' W 122°21'0 0.0
2017-Feb-01 07:31N 47°35' W 122°21'0 0.0
2017-Feb-01 06:31N 47°35' W 122°21'0 0.0
2017-Feb-01 05:32N 47°35' W 122°21'0 0.0
2017-Feb-01 04:32N 47°35' W 122°21'0 0.0
2017-Feb-01 03:31N 47°35' W 122°21'0 0.0
2017-Feb-01 02:32N 47°35' W 122°21'0 0.0
2017-Feb-01 01:31N 47°35' W 122°21'0 0.0
2017-Feb-01 00:32N 47°35' W 122°21'1 1.0
2017-Jan-31 23:34N 47°36' W 122°22'1212.0
2017-Jan-31 22:33N 47°47' W 122°27'1918.2
2017-Jan-31 21:31N 48°04' W 122°39'1616.7
2017-Jan-31 20:32N 48°12' W 123°01'1515.6
2017-Jan-31 19:33N 48°10' W 123°24'9 8.5
2017-Jan-31 18:33N 48°13' W 123°36'1212.4
2017-Jan-31 17:33N 48°13' W 123°54'1313.4
2017-Jan-31 16:33N 48°19' W 124°13'1414.3
2017-Jan-31 15:34N 48°25' W 124°32'1514.6
2017-Jan-31 14:33N 48°29' W 124°53'1413.5
2017-Jan-31 13:33N 48°18' W 125°07'1514.7
2017-Jan-31 12:33N 48°05' W 125°17'1514.4
2017-Jan-31 11:32N 47°51' W 125°20'4414.7
2017-Jan-31 08:33N 47°07' W 125°19'2014.5
2017-Jan-31 07:09N 46°47' W 125°18'814.3
2017-Jan-31 06:34N 46°38' W 125°18'1414.3
2017-Jan-31 05:33N 46°24' W 125°18'1514.7
2017-Jan-31 04:33N 46°09' W 125°17'7 7.0
2017-Jan-31 03:33N 46°02' W 125°17'10 9.5
2017-Jan-31 02:33N 45°53' W 125°16'1414.4
2017-Jan-31 01:33N 45°38' W 125°16'1614.5
2017-Jan-31 00:27N 45°22' W 125°15'1314.5
2017-Jan-30 23:32N 45°09' W 125°16'1414.5
2017-Jan-30 22:33N 44°55' W 125°15'1414.6
2017-Jan-30 21:33N 44°40' W 125°14'1514.6
2017-Jan-30 20:34N 44°26' W 125°14'1914.4
2017-Jan-30 19:12N 44°06' W 125°13'1014.4
2017-Jan-30 18:29N 43°56' W 125°13'1414.5
2017-Jan-30 17:31N 43°42' W 125°13'1714.5
2017-Jan-30 16:20N 43°24' W 125°13'25714.4
2017-Jan-29 22:29N 39°09' W 124°33'1414.7
2017-Jan-29 21:33N 38°56' W 124°27'1514.8
2017-Jan-29 20:33N 38°43' W 124°20'1514.5
2017-Jan-29 19:33N 38°29' W 124°13'1514.7
2017-Jan-29 18:33N 38°16' W 124°05'1514.7
2017-Jan-29 17:33N 38°02' W 123°60'1514.8
2017-Jan-29 16:33N 37°48' W 123°53'1514.8
2017-Jan-29 15:33N 37°35' W 123°44'1514.4
2017-Jan-29 14:33N 37°23' W 123°34'1414.7
2017-Jan-29 13:33N 37°11' W 123°24'1414.4
2017-Jan-29 12:33N 36°59' W 123°14'1414.5
2017-Jan-29 11:34N 36°47' W 123°03'1514.7
2017-Jan-29 10:33N 36°35' W 122°53'1514.9
2017-Jan-29 09:33N 36°23' W 122°43'1514.9
2017-Jan-29 08:34N 36°10' W 122°32'1514.9
2017-Jan-29 07:33N 35°58' W 122°22'1515.0
2017-Jan-29 06:34N 35°45' W 122°12'1514.8
2017-Jan-29 05:33N 35°34' W 122°01'1515.1
2017-Jan-29 04:33N 35°21' W 121°51'3014.8
2017-Jan-29 02:34N 34°56' W 121°30'1414.4
2017-Jan-29 01:33N 34°45' W 121°20'  
2017-Jan-26 16:18N 33°44' W 118°12'6 0.1
2017-Jan-24 13:32N 33°38' W 118°13'  
Track history (hours):
 
Tides and Currents Weather Stations Pressure Air Temp Water Temp Dewpoint Dewpoint Depression Visibility Wind Speed Wind Dir Waves Ship Positions

Cosco Kaohsiung

Last reported at 2017-Feb-02 15:31 UTC. Time now 2017-Feb-25 13:49 UTC.
Position N 48°31' W 126°33'.
Warning: this ship's position is 22 days out of date.

Length 349 m; draft 12.1 m.

Type: Ship (hazmat cat A). MMSI: 477136800.

Date/timePositionNaut miles runAvg speedWind from/ knotsBaromVisibWave heightAir tempDewpointWater temp
2017-Feb-02 15:31N 48°31' W 126°33'1515.5
2017-Feb-02 14:33N 48°31' W 126°10'1515.1
2017-Feb-02 13:33N 48°31' W 125°48'1514.9
2017-Feb-02 12:33N 48°32' W 125°25'1515.3
2017-Feb-02 11:34N 48°31' W 125°02'1515.3
2017-Feb-02 10:33N 48°29' W 124°39'1615.9
2017-Feb-02 09:34N 48°23' W 124°17'1616.1
2017-Feb-02 08:33N 48°18' W 123°54'1616.4
2017-Feb-02 07:33N 48°14' W 123°30'1111.2
2017-Feb-02 06:33N 48°10' W 123°14'1918.5
2017-Feb-02 05:31N 48°10' W 122°45'1818.7
2017-Feb-02 04:33N 47°56' W 122°29'1717.2
2017-Feb-02 03:33N 47°39' W 122°27'6 5.4
2017-Feb-02 02:32N 47°35' W 122°21'0 0.0
2017-Feb-02 01:31N 47°35' W 122°21'0 0.0
2017-Feb-02 00:32N 47°35' W 122°21'0 0.0
2017-Feb-01 23:31N 47°35' W 122°21'0 0.0
2017-Feb-01 22:32N 47°35' W 122°21'0 0.0
2017-Feb-01 21:31N 47°35' W 122°21'0 0.0
2017-Feb-01 20:32N 47°35' W 122°21'0 0.0
2017-Feb-01 19:31N 47°35' W 122°21'0 0.0
2017-Feb-01 18:32N 47°35' W 122°21'0 0.0
2017-Feb-01 17:32N 47°35' W 122°21'0 0.0
2017-Feb-01 16:32N 47°35' W 122°21'0 0.0
2017-Feb-01 15:32N 47°35' W 122°21'0 0.0
2017-Feb-01 14:31N 47°35' W 122°21'0 0.0
2017-Feb-01 12:31N 47°35' W 122°21'0 0.0
2017-Feb-01 11:32N 47°35' W 122°21'0 0.0
2017-Feb-01 10:32N 47°35' W 122°21'0 0.0
2017-Feb-01 09:31N 47°35' W 122°21'0 0.0
2017-Feb-01 08:29N 47°35' W 122°21'0 0.0
2017-Feb-01 07:31N 47°35' W 122°21'0 0.0
2017-Feb-01 06:31N 47°35' W 122°21'0 0.0
2017-Feb-01 05:32N 47°35' W 122°21'0 0.0
2017-Feb-01 04:32N 47°35' W 122°21'0 0.0
2017-Feb-01 03:31N 47°35' W 122°21'0 0.0
2017-Feb-01 02:32N 47°35' W 122°21'0 0.0
2017-Feb-01 01:31N 47°35' W 122°21'0 0.0
2017-Feb-01 00:32N 47°35' W 122°21'1 1.0
2017-Jan-31 23:34N 47°36' W 122°22'1212.0
2017-Jan-31 22:33N 47°47' W 122°27'1918.2
2017-Jan-31 21:31N 48°04' W 122°39'1616.7
2017-Jan-31 20:32N 48°12' W 123°01'1515.6
2017-Jan-31 19:33N 48°10' W 123°24'9 8.5
2017-Jan-31 18:33N 48°13' W 123°36'1212.4
2017-Jan-31 17:33N 48°13' W 123°54'1313.4
2017-Jan-31 16:33N 48°19' W 124°13'1414.3
2017-Jan-31 15:34N 48°25' W 124°32'1514.6
2017-Jan-31 14:33N 48°29' W 124°53'1413.5
2017-Jan-31 13:33N 48°18' W 125°07'1514.7
2017-Jan-31 12:33N 48°05' W 125°17'1514.4
2017-Jan-31 11:32N 47°51' W 125°20'4414.7
2017-Jan-31 08:33N 47°07' W 125°19'2014.5
2017-Jan-31 07:09N 46°47' W 125°18'814.3
2017-Jan-31 06:34N 46°38' W 125°18'1414.3
2017-Jan-31 05:33N 46°24' W 125°18'1514.7
2017-Jan-31 04:33N 46°09' W 125°17'7 7.0
2017-Jan-31 03:33N 46°02' W 125°17'10 9.5
2017-Jan-31 02:33N 45°53' W 125°16'1414.4
2017-Jan-31 01:33N 45°38' W 125°16'1614.5
2017-Jan-31 00:27N 45°22' W 125°15'1314.5
2017-Jan-30 23:32N 45°09' W 125°16'1414.5
2017-Jan-30 22:33N 44°55' W 125°15'1414.6
2017-Jan-30 21:33N 44°40' W 125°14'1514.6
2017-Jan-30 20:34N 44°26' W 125°14'1914.4
2017-Jan-30 19:12N 44°06' W 125°13'1014.4
2017-Jan-30 18:29N 43°56' W 125°13'1414.5
2017-Jan-30 17:31N 43°42' W 125°13'1714.5
2017-Jan-30 16:20N 43°24' W 125°13'25714.4
2017-Jan-29 22:29N 39°09' W 124°33'1414.7
2017-Jan-29 21:33N 38°56' W 124°27'1514.8
2017-Jan-29 20:33N 38°43' W 124°20'1514.5
2017-Jan-29 19:33N 38°29' W 124°13'1514.7
2017-Jan-29 18:33N 38°16' W 124°05'1514.7
2017-Jan-29 17:33N 38°02' W 123°60'1514.8
2017-Jan-29 16:33N 37°48' W 123°53'1514.8
2017-Jan-29 15:33N 37°35' W 123°44'1514.4
2017-Jan-29 14:33N 37°23' W 123°34'1414.7
2017-Jan-29 13:33N 37°11' W 123°24'1414.4
2017-Jan-29 12:33N 36°59' W 123°14'1414.5
2017-Jan-29 11:34N 36°47' W 123°03'1514.7
2017-Jan-29 10:33N 36°35' W 122°53'1514.9
2017-Jan-29 09:33N 36°23' W 122°43'1514.9
2017-Jan-29 08:34N 36°10' W 122°32'1514.9
2017-Jan-29 07:33N 35°58' W 122°22'1515.0
2017-Jan-29 06:34N 35°45' W 122°12'1514.8
2017-Jan-29 05:33N 35°34' W 122°01'1515.1
2017-Jan-29 04:33N 35°21' W 121°51'3014.8
2017-Jan-29 02:34N 34°56' W 121°30'1414.4
2017-Jan-29 01:33N 34°45' W 121°20'  
2017-Jan-26 16:18N 33°44' W 118°12'6 0.1
2017-Jan-24 13:32N 33°38' W 118°13'  

Dump ship's entire track history